Time;durP1;ratioP1;P1;durP2;ratioP2;P2;SDS_P1;SDS_P2;PMS_P1;PMS_P2;Temp;Humidity;BMP_temperature;BMP_pressure;BME280_temperature;BME280_humidity;BME280_pressure;Samples;Min_cycle;Max_cycle;Signal;HPM_P1;HPM_P2
2023/10/20 00:01:27;;;;;;;3.92;2.17;;;6.60;99.90;;;;;;5003871;28;20045;-72
2023/10/20 00:03:52;;;;;;;3.72;2.03;;;6.60;99.90;;;;;;5006779;28;20021;-71
2023/10/20 00:06:18;;;;;;;3.45;1.95;;;6.60;99.90;;;;;;5005510;28;20096;-72
2023/10/20 00:08:44;;;;;;;4.10;2.28;;;6.60;99.90;;;;;;5001772;28;20084;-72
2023/10/20 00:11:10;;;;;;;4.05;2.33;;;6.60;99.90;;;;;;5008103;28;20125;-73
2023/10/20 00:13:35;;;;;;;2.88;2.03;;;6.60;99.90;;;;;;5008057;28;20109;-72
2023/10/20 00:16:01;;;;;;;4.32;2.10;;;6.60;99.90;;;;;;5008231;28;20056;-72
2023/10/20 00:18:26;;;;;;;4.60;2.35;;;6.60;99.90;;;;;;5010439;28;20038;-72
2023/10/20 00:20:52;;;;;;;3.92;2.22;;;6.60;99.90;;;;;;5004961;28;20514;-71
2023/10/20 00:23:17;;;;;;;2.60;1.60;;;6.60;99.90;;;;;;5004349;28;20029;-71
2023/10/20 00:25:43;;;;;;;3.15;1.77;;;6.70;99.90;;;;;;5011488;28;20061;-73
2023/10/20 00:28:09;;;;;;;2.97;2.00;;;6.60;99.90;;;;;;5007123;28;20037;-72
2023/10/20 00:30:36;;;;;;;3.35;1.92;;;6.60;99.90;;;;;;5005318;28;20033;-72
2023/10/20 00:33:01;;;;;;;3.60;1.90;;;6.60;99.90;;;;;;5009039;28;20113;-72
2023/10/20 00:35:27;;;;;;;2.80;1.67;;;6.70;99.90;;;;;;5011058;28;20041;-71
2023/10/20 00:37:53;;;;;;;3.58;2.05;;;6.70;99.90;;;;;;5002997;28;20046;-72
2023/10/20 00:40:22;;;;;;;3.83;2.22;;;6.70;99.90;;;;;;5006938;28;20069;-72
2023/10/20 00:42:47;;;;;;;2.92;1.85;;;6.70;99.90;;;;;;5001379;28;20439;-71
2023/10/20 00:45:13;;;;;;;3.42;2.00;;;6.60;99.90;;;;;;5010725;28;20042;-73
2023/10/20 00:47:39;;;;;;;3.55;1.92;;;6.70;99.90;;;;;;5006034;28;20087;-73
2023/10/20 00:50:06;;;;;;;2.83;1.67;;;6.70;99.90;;;;;;5009104;28;20026;-71
2023/10/20 00:52:35;;;;;;;3.20;1.85;;;6.70;99.90;;;;;;5003627;28;20037;-72
2023/10/20 00:55:02;;;;;;;2.28;1.58;;;6.70;99.90;;;;;;5006066;28;20041;-71
2023/10/20 00:57:27;;;;;;;3.10;1.75;;;6.70;99.90;;;;;;4999640;28;20091;-71
2023/10/20 00:59:53;;;;;;;3.22;1.40;;;6.70;99.90;;;;;;5014122;28;20025;-71
2023/10/20 01:02:20;;;;;;;2.83;1.63;;;6.70;99.90;;;;;;5007417;28;20503;-74
2023/10/20 01:04:45;;;;;;;2.38;1.35;;;6.70;99.90;;;;;;5012266;28;20105;-72
2023/10/20 01:07:11;;;;;;;2.95;1.30;;;6.70;99.90;;;;;;5007387;28;20129;-72
2023/10/20 01:09:36;;;;;;;2.80;1.45;;;6.70;99.90;;;;;;5005273;28;20026;-72
2023/10/20 01:12:03;;;;;;;3.13;1.65;;;6.70;99.90;;;;;;5002889;28;20042;-73
2023/10/20 01:14:29;;;;;;;1.90;1.20;;;6.70;99.90;;;;;;5007943;28;20052;-72
2023/10/20 01:16:54;;;;;;;2.70;1.38;;;6.70;99.90;;;;;;5004146;28;20034;-71
2023/10/20 01:19:19;;;;;;;2.65;1.50;;;6.70;99.90;;;;;;5011801;28;20069;-71
2023/10/20 01:21:45;;;;;;;2.80;1.80;;;6.70;99.90;;;;;;5005441;28;20467;-72
2023/10/20 01:24:10;;;;;;;2.40;1.58;;;6.70;99.90;;;;;;5012523;28;20236;-72
2023/10/20 01:26:36;;;;;;;2.28;1.33;;;6.70;99.90;;;;;;5008004;28;20544;-72
2023/10/20 01:29:05;;;;;;;2.67;1.52;;;6.70;99.90;;;;;;5012258;28;20060;-72
2023/10/20 01:31:31;;;;;;;2.13;1.40;;;6.70;99.90;;;;;;5002785;28;20132;-72
2023/10/20 01:33:56;;;;;;;1.83;1.20;;;6.70;99.90;;;;;;5009374;28;20030;-72
2023/10/20 01:36:22;;;;;;;2.35;1.40;;;6.70;99.90;;;;;;5005033;28;20034;-73
2023/10/20 01:38:47;;;;;;;2.75;1.58;;;6.70;99.90;;;;;;5002048;28;20030;-71
2023/10/20 01:41:13;;;;;;;2.30;1.48;;;6.70;99.90;;;;;;5008620;28;20034;-74
2023/10/20 01:43:38;;;;;;;3.25;1.33;;;6.70;99.90;;;;;;5009905;28;20040;-71
2023/10/20 01:46:04;;;;;;;2.03;1.25;;;6.70;99.90;;;;;;5009984;28;20033;-74
2023/10/20 01:48:30;;;;;;;2.45;1.10;;;6.70;99.90;;;;;;5007771;28;20402;-72
2023/10/20 01:50:56;;;;;;;2.72;1.40;;;6.70;99.90;;;;;;5001064;28;20434;-72
2023/10/20 01:53:22;;;;;;;2.90;1.45;;;6.70;99.90;;;;;;4999792;28;20101;-72
2023/10/20 01:55:49;;;;;;;2.90;1.63;;;6.70;99.90;;;;;;5004470;28;20538;-71
2023/10/20 01:58:18;;;;;;;2.90;1.65;;;6.70;99.90;;;;;;5007844;28;20093;-72
2023/10/20 02:00:48;;;;;;;2.47;1.42;;;6.70;99.90;;;;;;5003093;28;20030;-73
2023/10/20 02:03:14;;;;;;;1.83;1.13;;;6.70;99.90;;;;;;5008397;28;20610;-71
2023/10/20 02:05:39;;;;;;;1.73;1.02;;;6.70;99.90;;;;;;4999229;28;20021;-71
2023/10/20 02:08:05;;;;;;;2.60;1.48;;;6.70;99.90;;;;;;5001903;28;20044;-71
2023/10/20 02:10:31;;;;;;;2.00;1.25;;;6.70;99.90;;;;;;5010787;28;20474;-72
2023/10/20 02:12:56;;;;;;;1.77;1.20;;;6.70;99.90;;;;;;4999231;28;20447;-72
2023/10/20 02:15:22;;;;;;;2.10;1.00;;;6.80;99.90;;;;;;5009605;28;20143;-72
2023/10/20 02:17:48;;;;;;;1.75;0.90;;;6.80;99.90;;;;;;5000201;28;20076;-72
2023/10/20 02:20:15;;;;;;;1.48;0.70;;;6.70;99.90;;;;;;5008906;28;20033;-71
2023/10/20 02:22:41;;;;;;;1.20;0.77;;;6.80;99.90;;;;;;5007789;28;20102;-72
2023/10/20 02:25:09;;;;;;;1.17;0.70;;;6.70;99.90;;;;;;5010293;28;20132;-72
2023/10/20 02:27:36;;;;;;;0.82;0.60;;;6.70;99.90;;;;;;4999165;28;20034;-71
2023/10/20 02:30:03;;;;;;;1.25;0.80;;;6.70;99.90;;;;;;4999533;28;20034;-71
2023/10/20 02:32:28;;;;;;;1.17;0.60;;;6.70;99.90;;;;;;5006062;28;20037;-72
2023/10/20 02:34:53;;;;;;;1.25;0.70;;;6.70;99.90;;;;;;5007129;28;20386;-72
2023/10/20 02:37:19;;;;;;;0.40;0.40;;;6.70;99.90;;;;;;4997669;28;20035;-74
2023/10/20 02:39:44;;;;;;;0.85;0.52;;;6.70;99.90;;;;;;5004707;28;20034;-72
2023/10/20 02:42:11;;;;;;;1.30;0.70;;;6.60;99.90;;;;;;5005894;28;20109;-72
2023/10/20 02:44:37;;;;;;;0.50;0.50;;;6.70;99.90;;;;;;5011632;28;20542;-71
2023/10/20 02:47:03;;;;;;;1.27;0.80;;;6.60;99.90;;;;;;5000197;28;20094;-72
2023/10/20 02:49:28;;;;;;;0.52;0.40;;;6.60;99.90;;;;;;5003863;28;20042;-72
2023/10/20 02:51:55;;;;;;;1.63;0.70;;;6.60;99.90;;;;;;4999083;28;20045;-72
2023/10/20 02:54:20;;;;;;;0.57;0.47;;;6.60;99.90;;;;;;5004013;28;20049;-71
2023/10/20 02:56:46;;;;;;;1.00;0.70;;;6.60;99.90;;;;;;4995554;28;20045;-72
2023/10/20 02:59:12;;;;;;;0.80;0.57;;;6.60;99.90;;;;;;5010198;28;20036;-71
2023/10/20 03:01:38;;;;;;;0.68;0.60;;;6.60;99.90;;;;;;5005385;28;20037;-73
2023/10/20 03:04:03;;;;;;;1.25;0.63;;;6.60;99.90;;;;;;5004772;28;20092;-71
2023/10/20 03:06:29;;;;;;;1.00;0.70;;;6.60;99.90;;;;;;5010780;28;20038;-72
2023/10/20 03:08:55;;;;;;;1.77;0.65;;;6.50;99.90;;;;;;5002263;28;20037;-72
2023/10/20 03:11:20;;;;;;;1.30;0.68;;;6.60;99.90;;;;;;4998702;28;20080;-73
2023/10/20 03:13:46;;;;;;;1.23;0.70;;;6.50;99.90;;;;;;5009373;28;20499;-72
2023/10/20 03:16:11;;;;;;;1.55;0.90;;;6.50;99.90;;;;;;5007139;28;20040;-72
2023/10/20 03:18:36;;;;;;;0.85;0.70;;;6.50;99.90;;;;;;5009218;28;20479;-72
2023/10/20 03:21:02;;;;;;;0.68;0.65;;;6.50;99.90;;;;;;5008771;28;20037;-73
2023/10/20 03:23:28;;;;;;;1.17;0.60;;;6.50;99.90;;;;;;5004690;28;20478;-72
2023/10/20 03:25:54;;;;;;;1.45;0.85;;;6.50;99.90;;;;;;5005158;28;20050;-73
2023/10/20 03:28:19;;;;;;;0.77;0.52;;;6.50;99.90;;;;;;5000796;28;20037;-72
2023/10/20 03:30:46;;;;;;;1.33;0.80;;;6.40;99.90;;;;;;5006771;28;20038;-72
2023/10/20 03:33:13;;;;;;;0.75;0.52;;;6.40;99.90;;;;;;5001663;28;20417;-72
2023/10/20 03:35:42;;;;;;;0.88;0.70;;;6.40;99.90;;;;;;5007138;28;20166;-72
2023/10/20 03:38:09;;;;;;;1.02;0.75;;;6.40;99.90;;;;;;5001684;28;20079;-71
2023/10/20 03:40:40;;;;;;;1.60;0.95;;;6.40;99.90;;;;;;5002202;28;20030;-71
2023/10/20 03:43:06;;;;;;;;;;;6.40;99.90;;;;;;5002453;28;20475;-73
2023/10/20 03:45:48;;;;;;;1.52;0.65;;;6.40;99.90;;;;;;4999146;28;19981;-72
2023/10/20 03:48:14;;;;;;;0.45;0.43;;;6.30;99.90;;;;;;5006535;28;20516;-72
2023/10/20 03:50:43;;;;;;;0.75;0.68;;;6.40;99.90;;;;;;5008909;28;20076;-71
2023/10/20 03:53:15;;;;;;;0.75;0.65;;;6.30;99.90;;;;;;5013286;28;20034;-72
2023/10/20 03:55:40;;;;;;;0.77;0.70;;;6.40;99.90;;;;;;5003303;28;20098;-72
2023/10/20 03:58:06;;;;;;;2.00;0.88;;;6.30;99.90;;;;;;5005471;28;20114;-72
2023/10/20 04:00:31;;;;;;;1.13;0.73;;;6.30;99.90;;;;;;5011169;28;20455;-72
2023/10/20 04:02:57;;;;;;;1.58;0.88;;;6.30;99.90;;;;;;5003649;28;20081;-72
2023/10/20 04:05:24;;;;;;;1.80;0.85;;;6.30;99.90;;;;;;5004118;28;20045;-73
2023/10/20 04:07:50;;;;;;;0.98;0.80;;;6.30;99.90;;;;;;4998909;28;20092;-73
2023/10/20 04:10:18;;;;;;;1.15;0.60;;;6.30;99.90;;;;;;5007333;28;20030;-71
2023/10/20 04:12:44;;;;;;;0.95;0.73;;;6.30;99.90;;;;;;5002249;28;20482;-71
2023/10/20 04:15:14;;;;;;;0.77;0.60;;;6.20;99.90;;;;;;5013815;28;20037;-72
2023/10/20 04:17:56;;;;;;;0.82;0.82;;;6.30;99.90;;;;;;5009881;28;20426;-72
2023/10/20 04:20:23;;;;;;;0.95;0.70;;;6.30;99.90;;;;;;5003642;28;20124;-72
2023/10/20 04:22:49;;;;;;;0.73;0.73;;;6.20;99.90;;;;;;5000812;28;20036;-74
2023/10/20 04:25:18;;;;;;;0.90;0.60;;;6.20;99.90;;;;;;5008387;28;20057;-71
2023/10/20 04:27:54;;;;;;;2.00;0.80;;;6.20;99.90;;;;;;5004212;28;20030;-70
2023/10/20 04:49:58;;;;;;;2.17;1.08;;;6.10;99.90;;;;;;5011862;28;20548;-68
2023/10/20 04:54:50;;;;;;;1.00;0.70;;;6.10;99.90;;;;;;5011554;28;20088;-66
2023/10/20 04:59:54;;;;;;;0.70;0.70;;;6.10;99.90;;;;;;5001124;28;20144;-73
2023/10/20 05:05:10;;;;;;;1.42;0.90;;;6.10;99.90;;;;;;5001466;28;20116;-66
2023/10/20 05:07:36;;;;;;;1.20;0.70;;;6.10;99.90;;;;;;5003537;28;20038;-66
2023/10/20 05:10:04;;;;;;;1.23;0.70;;;6.10;99.80;;;;;;5004256;28;20041;-67
2023/10/20 05:12:33;;;;;;;0.98;0.65;;;6.10;99.90;;;;;;5001555;28;20033;-65
2023/10/20 05:14:58;;;;;;;1.40;0.88;;;6.10;99.90;;;;;;5004642;28;20025;-69
2023/10/20 05:17:25;;;;;;;2.25;0.90;;;6.10;99.90;;;;;;5005582;28;20040;-66
2023/10/20 05:19:53;;;;;;;1.08;0.52;;;6.10;99.90;;;;;;5011892;28;20022;-67
2023/10/20 05:22:18;;;;;;;1.08;0.73;;;6.00;99.90;;;;;;5011449;28;20026;-68
2023/10/20 05:24:44;;;;;;;0.60;0.43;;;6.00;99.80;;;;;;5009152;28;20034;-68
2023/10/20 05:27:09;;;;;;;1.23;0.70;;;6.00;99.80;;;;;;5003846;28;20044;-68
2023/10/20 05:29:36;;;;;;;1.35;0.90;;;6.00;99.80;;;;;;5006931;28;20640;-68
2023/10/20 05:32:06;;;;;;;1.20;0.73;;;6.00;99.80;;;;;;5006342;28;20030;-67
2023/10/20 05:34:31;;;;;;;0.98;0.68;;;6.00;99.80;;;;;;5011613;28;20029;-68
2023/10/20 05:36:57;;;;;;;1.48;0.60;;;6.00;99.80;;;;;;5007548;28;20105;-70
2023/10/20 05:39:22;;;;;;;1.35;0.63;;;6.00;99.80;;;;;;5003085;28;20097;-67
2023/10/20 05:41:48;;;;;;;0.95;0.70;;;6.00;99.90;;;;;;5003498;28;20081;-66
2023/10/20 05:44:14;;;;;;;0.98;0.65;;;6.00;99.70;;;;;;4995555;28;20038;-66
2023/10/20 05:46:41;;;;;;;1.67;0.90;;;5.90;99.70;;;;;;5001795;28;20084;-69
2023/10/20 05:49:08;;;;;;;0.98;0.80;;;6.00;99.80;;;;;;5007187;28;20386;-66
2023/10/20 05:51:33;;;;;;;0.82;0.73;;;6.00;99.70;;;;;;5004478;28;20033;-67
2023/10/20 05:53:59;;;;;;;1.77;0.90;;;6.00;99.70;;;;;;5004437;28;20042;-69
2023/10/20 05:56:24;;;;;;;1.90;0.60;;;5.90;99.70;;;;;;4996644;28;20030;-68
2023/10/20 05:58:50;;;;;;;0.65;0.60;;;5.90;99.70;;;;;;4996939;28;20124;-69
2023/10/20 06:01:18;;;;;;;0.98;0.60;;;6.00;99.80;;;;;;5005390;28;20401;-69
2023/10/20 06:03:43;;;;;;;1.00;0.60;;;5.90;99.80;;;;;;5007701;28;20026;-68
2023/10/20 06:06:10;;;;;;;0.82;0.50;;;5.90;99.70;;;;;;5010042;28;20088;-71
2023/10/20 06:08:35;;;;;;;1.67;0.50;;;5.90;99.80;;;;;;5005143;28;20104;-68
2023/10/20 06:11:05;;;;;;;0.82;0.68;;;5.90;99.80;;;;;;5008772;28;20038;-71
2023/10/20 06:13:33;;;;;;;0.68;0.60;;;5.80;99.60;;;;;;5002771;28;20148;-69
2023/10/20 06:16:08;;;;;;;0.85;0.68;;;5.90;99.50;;;;;;5009637;28;20033;-68
2023/10/20 06:18:34;;;;;;;0.47;0.40;;;5.90;99.60;;;;;;5009154;28;20038;-68
2023/10/20 06:20:59;;;;;;;1.27;0.50;;;5.80;99.50;;;;;;5007400;28;20672;-68
2023/10/20 06:23:25;;;;;;;0.55;0.50;;;5.90;99.60;;;;;;4997235;28;20053;-69
2023/10/20 06:25:50;;;;;;;0.57;0.40;;;5.90;99.70;;;;;;5007327;28;20057;-68
2023/10/20 06:28:16;;;;;;;0.77;0.68;;;5.90;99.80;;;;;;5004194;28;20103;-68
2023/10/20 06:30:46;;;;;;;0.93;0.50;;;5.90;99.80;;;;;;5005497;28;20038;-67
2023/10/20 06:33:16;;;;;;;0.50;0.43;;;5.80;99.80;;;;;;5009912;28;20045;-68
2023/10/20 06:35:51;;;;;;;1.55;0.70;;;5.80;99.80;;;;;;5003287;28;20041;-68
2023/10/20 06:39:05;;;;;;;0.70;0.52;;;5.80;99.70;;;;;;5002707;28;20038;-68
2023/10/20 06:41:06;;;;;;;0.80;0.50;;;5.80;99.80;;;;;;4991567;28;20117;-68
2023/10/20 06:43:32;;;;;;;0.47;0.43;;;5.80;99.90;;;;;;5009385;28;20088;-69
2023/10/20 06:45:59;;;;;;;0.32;0.30;;;5.80;99.80;;;;;;5009540;28;20030;-68
2023/10/20 06:48:26;;;;;;;0.43;0.43;;;5.80;99.80;;;;;;5012468;28;20038;-68
2023/10/20 06:50:52;;;;;;;1.50;0.70;;;5.70;99.80;;;;;;5004306;28;20026;-68
2023/10/20 06:53:18;;;;;;;0.45;0.20;;;5.70;99.80;;;;;;5005678;28;20034;-68
2023/10/20 06:55:46;;;;;;;0.95;0.50;;;5.70;99.80;;;;;;5001545;28;20386;-69
2023/10/20 06:58:12;;;;;;;0.90;0.50;;;5.70;99.80;;;;;;5000748;28;20120;-68
2023/10/20 07:00:38;;;;;;;0.30;0.30;;;5.70;99.80;;;;;;5006673;28;20109;-68
2023/10/20 07:03:04;;;;;;;2.15;0.60;;;5.60;99.80;;;;;;5011315;28;20034;-68
2023/10/20 07:05:31;;;;;;;0.55;0.38;;;5.60;99.90;;;;;;5005418;28;20053;-68
2023/10/20 07:07:59;;;;;;;0.40;0.40;;;5.60;99.80;;;;;;5011062;28;20033;-68
2023/10/20 07:10:25;;;;;;;0.20;0.20;;;5.60;99.90;;;;;;5000777;28;20438;-70
2023/10/20 07:12:51;;;;;;;0.40;0.40;;;5.60;99.90;;;;;;5007082;28;20037;-68
2023/10/20 07:15:16;;;;;;;1.00;0.40;;;5.60;99.90;;;;;;5006503;28;20057;-69
2023/10/20 07:17:42;;;;;;;0.95;0.73;;;5.60;99.90;;;;;;5008110;28;20121;-69
2023/10/20 07:20:08;;;;;;;0.30;0.30;;;5.60;99.90;;;;;;5009947;28;20080;-68
2023/10/20 07:22:34;;;;;;;0.38;0.30;;;5.50;99.90;;;;;;5000007;28;20042;-69
2023/10/20 07:24:59;;;;;;;1.15;0.60;;;5.50;99.90;;;;;;5004243;28;20054;-69
2023/10/20 07:27:25;;;;;;;0.52;0.40;;;5.50;99.90;;;;;;4989425;28;20054;-70
2023/10/20 07:29:50;;;;;;;0.38;0.38;;;5.50;99.80;;;;;;4997973;28;21674;-68
2023/10/20 07:32:17;;;;;;;1.15;0.57;;;5.50;99.80;;;;;;5009352;28;20517;-70
2023/10/20 07:34:43;;;;;;;1.60;0.68;;;5.40;99.80;;;;;;5009770;28;20045;-68
2023/10/20 07:37:08;;;;;;;0.40;0.40;;;5.40;99.80;;;;;;5003945;28;20042;-69
2023/10/20 07:39:34;;;;;;;0.75;0.65;;;5.50;99.90;;;;;;5008219;28;20037;-68
2023/10/20 07:41:59;;;;;;;0.80;0.50;;;5.40;99.70;;;;;;5002660;28;20065;-68
2023/10/20 07:44:25;;;;;;;0.93;0.60;;;5.40;99.70;;;;;;5001741;28;20101;-68
2023/10/20 07:46:51;;;;;;;0.40;0.32;;;5.50;99.80;;;;;;5008804;28;20050;-68
2023/10/20 07:49:16;;;;;;;0.32;0.32;;;5.40;99.70;;;;;;5008334;28;20034;-68
2023/10/20 07:51:42;;;;;;;0.47;0.38;;;5.50;99.70;;;;;;5003059;28;20188;-68
2023/10/20 07:54:11;;;;;;;0.77;0.60;;;5.50;99.80;;;;;;5007030;28;20045;-68
2023/10/20 07:56:38;;;;;;;1.38;0.50;;;5.50;99.80;;;;;;4996586;28;20112;-68
2023/10/20 07:59:04;;;;;;;0.60;0.30;;;5.50;99.80;;;;;;5006921;28;20065;-68
2023/10/20 08:01:29;;;;;;;1.13;0.60;;;5.50;99.80;;;;;;5003507;28;20053;-68
2023/10/20 08:03:55;;;;;;;0.57;0.43;;;5.50;99.80;;;;;;5010308;28;20041;-69
2023/10/20 08:06:22;;;;;;;0.77;0.60;;;5.50;99.80;;;;;;5010777;28;20060;-68
2023/10/20 08:08:48;;;;;;;0.45;0.43;;;5.40;99.60;;;;;;5006628;28;20471;-69
2023/10/20 08:11:13;;;;;;;1.27;0.57;;;5.50;99.70;;;;;;5009318;28;20044;-70
2023/10/20 08:13:39;;;;;;;1.02;0.82;;;5.50;99.70;;;;;;5006451;28;20029;-68
2023/10/20 08:16:06;;;;;;;1.20;0.63;;;5.40;99.70;;;;;;5001980;28;20048;-68
2023/10/20 08:18:35;;;;;;;1.25;0.65;;;5.50;99.70;;;;;;5002424;28;20479;-68
2023/10/20 08:21:08;;;;;;;1.48;0.65;;;5.40;99.70;;;;;;5011296;28;20026;-68
2023/10/20 08:23:38;;;;;;;0.70;0.50;;;5.40;99.70;;;;;;5005959;28;20028;-68
2023/10/20 08:26:04;;;;;;;1.35;0.95;;;5.50;99.70;;;;;;5009760;28;20521;-68
2023/10/20 08:28:29;;;;;;;2.15;1.05;;;5.40;99.60;;;;;;4999830;28;20042;-69
2023/10/20 08:31:09;;;;;;;1.20;0.57;;;5.40;99.40;;;;;;5000686;28;20544;-69
2023/10/20 08:33:35;;;;;;;1.27;0.68;;;5.50;99.60;;;;;;5007586;28;20033;-68
2023/10/20 08:36:14;;;;;;;1.95;1.08;;;5.40;99.70;;;;;;5005696;28;20097;-68
2023/10/20 08:38:42;;;;;;;1.23;0.85;;;5.40;99.50;;;;;;5002872;28;20115;-69
2023/10/20 08:41:13;;;;;;;0.90;0.75;;;5.40;99.60;;;;;;5004888;28;20034;-69
2023/10/20 08:43:40;;;;;;;;;;;5.40;99.40;;;;;;5007688;28;20494;-69
2023/10/20 08:46:08;;;;;;;3.00;1.10;;;5.40;99.60;;;;;;5008006;28;20012;-68
2023/10/20 08:48:37;;;;;;;2.55;0.82;;;5.50;99.60;;;;;;5004298;28;20129;-68
2023/10/20 08:51:04;;;;;;;1.02;0.60;;;5.50;99.60;;;;;;5012721;28;20382;-68
2023/10/20 08:53:32;;;;;;;1.73;1.05;;;5.50;99.60;;;;;;5003441;28;20041;-69
2023/10/20 08:55:58;;;;;;;1.73;0.90;;;5.40;99.60;;;;;;4995633;28;20034;-69
2023/10/20 08:58:27;;;;;;;1.70;0.90;;;5.40;99.70;;;;;;5006153;28;20026;-68
2023/10/20 09:00:53;;;;;;;1.58;0.98;;;5.50;99.70;;;;;;5000857;28;20022;-69
2023/10/20 09:03:18;;;;;;;2.85;1.40;;;5.40;99.70;;;;;;5002868;28;20030;-70
2023/10/20 09:05:44;;;;;;;1.75;0.90;;;5.40;99.60;;;;;;5006398;28;20374;-68
2023/10/20 09:08:10;;;;;;;2.10;1.13;;;5.50;99.70;;;;;;4999085;28;20088;-68
2023/10/20 09:10:36;;;;;;;1.33;0.75;;;5.50;99.80;;;;;;5000415;28;20030;-70
2023/10/20 09:13:01;;;;;;;3.35;1.00;;;5.50;99.70;;;;;;5009878;28;20052;-68
2023/10/20 09:15:27;;;;;;;2.08;1.00;;;5.60;99.80;;;;;;5001797;28;20030;-69
2023/10/20 09:17:55;;;;;;;2.28;1.25;;;5.60;99.80;;;;;;5011807;28;20037;-68
2023/10/20 09:20:21;;;;;;;2.38;1.20;;;5.50;99.80;;;;;;5005590;28;20062;-69
2023/10/20 09:22:48;;;;;;;1.75;1.00;;;5.50;99.80;;;;;;5009834;28;20061;-68
2023/10/20 09:25:14;;;;;;;1.40;0.85;;;5.50;99.80;;;;;;5005985;28;20119;-69
2023/10/20 09:27:39;;;;;;;1.45;1.00;;;5.50;99.80;;;;;;5001201;28;20044;-68
2023/10/20 09:30:09;;;;;;;1.17;0.90;;;5.60;99.90;;;;;;5001591;28;20073;-69
2023/10/20 09:32:38;;;;;;;3.08;1.40;;;5.50;99.70;;;;;;5006140;28;20234;-68
2023/10/20 09:35:04;;;;;;;1.73;1.10;;;5.60;99.80;;;;;;5008493;28;20037;-69
2023/10/20 09:37:30;;;;;;;1.27;0.55;;;5.60;99.80;;;;;;5007572;28;20026;-70
2023/10/20 09:40:14;;;;;;;2.92;1.13;;;5.60;99.80;;;;;;5008673;28;20386;-68
2023/10/20 09:42:59;;;;;;;2.10;1.10;;;5.60;99.80;;;;;;5001074;28;20037;-68
2023/10/20 09:45:36;;;;;;;0.93;0.68;;;5.60;99.80;;;;;;5011300;28;20471;-68
2023/10/20 09:48:10;;;;;;;1.75;1.00;;;5.60;99.60;;;;;;5005385;28;20038;-68
2023/10/20 09:50:37;;;;;;;1.20;0.90;;;5.60;99.70;;;;;;5009270;28;20037;-69
2023/10/20 09:53:03;;;;;;;2.67;1.00;;;5.60;99.60;;;;;;5003793;28;20081;-68
2023/10/20 09:55:29;;;;;;;1.80;0.85;;;5.70;99.70;;;;;;5002565;28;20034;-68
2023/10/20 09:57:56;;;;;;;1.55;0.85;;;5.70;99.70;;;;;;4995521;28;20034;-68
2023/10/20 10:00:31;;;;;;;1.10;0.77;;;5.60;99.40;;;;;;5005606;28;20076;-69
2023/10/20 10:02:59;;;;;;;1.95;0.95;;;5.60;99.60;;;;;;5006841;28;20023;-69
2023/10/20 10:05:24;;;;;;;1.73;0.82;;;5.60;99.60;;;;;;5012439;28;20026;-69
2023/10/20 10:08:06;;;;;;;1.70;1.10;;;5.60;99.70;;;;;;5007553;28;20125;-68
2023/10/20 10:10:33;;;;;;;1.63;0.88;;;5.70;99.80;;;;;;5008994;28;20509;-69
2023/10/20 10:13:05;;;;;;;2.42;1.08;;;5.60;99.60;;;;;;5005114;28;20116;-69
2023/10/20 10:15:46;;;;;;;2.10;1.05;;;5.60;99.70;;;;;;5009474;28;20030;-69
2023/10/20 10:18:13;;;;;;;1.02;0.77;;;5.60;99.70;;;;;;5008141;28;20092;-68
2023/10/20 10:20:49;;;;;;;1.60;0.90;;;5.60;99.70;;;;;;5012833;28;20033;-72
2023/10/20 10:23:14;;;;;;;1.30;0.82;;;5.60;99.70;;;;;;5003196;28;20037;-71
2023/10/20 10:25:42;;;;;;;2.03;1.00;;;5.60;99.70;;;;;;5005179;28;20104;-69
2023/10/20 10:28:18;;;;;;;1.02;0.80;;;5.60;99.80;;;;;;5006653;28;20042;-68
2023/10/20 10:30:47;;;;;;;1.60;0.80;;;5.60;99.80;;;;;;5007007;28;20054;-73
2023/10/20 10:33:18;;;;;;;0.98;0.73;;;5.70;99.80;;;;;;5008064;28;20041;-68
2023/10/20 10:35:44;;;;;;;1.50;0.98;;;5.60;99.80;;;;;;5006837;28;20061;-68
2023/10/20 10:38:22;;;;;;;1.95;1.00;;;5.60;99.80;;;;;;5000654;28;20483;-69
2023/10/20 10:40:51;;;;;;;1.65;0.80;;;5.60;99.80;;;;;;5002147;28;20025;-68
2023/10/20 10:43:19;;;;;;;1.58;0.73;;;5.60;99.90;;;;;;5001075;28;20361;-68
2023/10/20 10:45:44;;;;;;;1.45;0.75;;;5.60;99.80;;;;;;5010972;28;20057;-68
2023/10/20 10:48:18;;;;;;;1.38;0.82;;;5.70;99.90;;;;;;5002818;28;20066;-68
2023/10/20 10:50:45;;;;;;;1.67;0.82;;;5.60;99.80;;;;;;5006617;28;20065;-68
2023/10/20 10:53:12;;;;;;;0.70;0.50;;;5.70;99.80;;;;;;5010688;28;20643;-68
2023/10/20 10:55:37;;;;;;;0.93;0.70;;;5.60;99.70;;;;;;5000895;28;20038;-68
2023/10/20 10:58:06;;;;;;;1.33;1.00;;;5.70;99.90;;;;;;5004716;28;20038;-68
2023/10/20 11:00:32;;;;;;;1.35;0.73;;;5.80;99.90;;;;;;5002283;28;20041;-67
2023/10/20 11:02:58;;;;;;;1.67;0.80;;;5.70;99.80;;;;;;5004876;28;20038;-68
2023/10/20 11:05:25;;;;;;;1.15;0.68;;;5.70;99.80;;;;;;5011409;28;20034;-69
2023/10/20 11:08:04;;;;;;;1.25;0.70;;;5.70;99.90;;;;;;4999424;28;20077;-68
2023/10/20 11:10:34;;;;;;;1.13;0.70;;;5.80;99.90;;;;;;5002904;28;20092;-68
2023/10/20 11:13:05;;;;;;;1.50;0.85;;;5.70;99.70;;;;;;4997855;28;20058;-68
2023/10/20 11:15:32;;;;;;;1.13;0.60;;;5.70;99.80;;;;;;5007176;28;20042;-68
2023/10/20 11:18:00;;;;;;;2.50;0.90;;;5.80;99.80;;;;;;5007460;28;20037;-68
2023/10/20 11:20:27;;;;;;;1.25;0.70;;;5.70;99.80;;;;;;5011452;28;20029;-68
2023/10/20 11:22:53;;;;;;;1.70;0.82;;;5.70;99.80;;;;;;5010254;28;20054;-69
2023/10/20 11:25:20;;;;;;;0.98;0.70;;;5.60;99.80;;;;;;5006838;28;20132;-69
2023/10/20 11:27:53;;;;;;;1.42;0.77;;;5.70;99.80;;;;;;5004527;28;20100;-69
2023/10/20 11:30:25;;;;;;;1.52;0.90;;;5.70;99.90;;;;;;5003318;28;20050;-68
2023/10/20 11:32:53;;;;;;;1.02;0.77;;;5.70;99.80;;;;;;5007179;28;20026;-71
2023/10/20 11:35:20;;;;;;;1.00;0.68;;;5.70;99.80;;;;;;5011088;28;20391;-69
2023/10/20 11:37:46;;;;;;;0.70;0.60;;;5.70;99.90;;;;;;5005541;28;20064;-68
2023/10/20 11:40:13;;;;;;;0.68;0.68;;;5.80;99.90;;;;;;5002935;28;20053;-68
2023/10/20 11:42:38;;;;;;;0.75;0.60;;;5.70;99.90;;;;;;5002023;28;20027;-69
2023/10/20 11:45:04;;;;;;;0.65;0.57;;;5.70;99.80;;;;;;5000694;28;20807;-68
2023/10/20 11:47:31;;;;;;;1.85;0.88;;;5.80;99.90;;;;;;5005411;28;20049;-68
2023/10/20 11:49:57;;;;;;;0.88;0.68;;;5.80;99.90;;;;;;5004856;28;20038;-69
2023/10/20 11:52:24;;;;;;;0.70;0.70;;;5.80;99.90;;;;;;5005382;28;20080;-68
2023/10/20 11:54:49;;;;;;;0.85;0.47;;;5.80;99.90;;;;;;4997422;28;20034;-69
2023/10/20 11:57:15;;;;;;;0.90;0.55;;;5.80;99.90;;;;;;4989888;28;20038;-69
2023/10/20 11:59:41;;;;;;;1.52;0.80;;;5.80;99.90;;;;;;5009207;28;20279;-69
2023/10/20 12:02:06;;;;;;;0.65;0.60;;;5.80;99.90;;;;;;5007335;28;20121;-68
2023/10/20 12:04:32;;;;;;;1.17;0.82;;;5.80;99.90;;;;;;5009202;28;20025;-69
2023/10/20 12:06:58;;;;;;;1.05;0.60;;;5.80;99.90;;;;;;5004114;28;20042;-71
2023/10/20 12:09:24;;;;;;;0.60;0.45;;;5.80;99.90;;;;;;5013168;28;20482;-69
2023/10/20 12:11:49;;;;;;;1.13;0.65;;;5.80;99.90;;;;;;4999140;28;20024;-69
2023/10/20 12:14:15;;;;;;;0.55;0.55;;;5.80;99.90;;;;;;5009306;28;20036;-69
2023/10/20 12:16:41;;;;;;;0.50;0.50;;;5.80;99.90;;;;;;5006216;28;20041;-68
2023/10/20 12:19:07;;;;;;;0.63;0.50;;;5.80;99.90;;;;;;5007231;28;20030;-68
2023/10/20 12:21:33;;;;;;;0.80;0.50;;;5.80;99.90;;;;;;5004573;28;20084;-69
2023/10/20 12:23:59;;;;;;;0.70;0.50;;;5.80;99.90;;;;;;5011784;28;20049;-69
2023/10/20 12:26:26;;;;;;;0.57;0.57;;;5.80;99.90;;;;;;5002627;28;20034;-70
2023/10/20 12:28:51;;;;;;;1.55;0.55;;;5.80;99.90;;;;;;5008678;28;20038;-69
2023/10/20 12:31:18;;;;;;;0.85;0.52;;;5.80;99.90;;;;;;5006980;28;20037;-69
2023/10/20 12:33:45;;;;;;;1.30;0.60;;;5.80;99.90;;;;;;5012629;28;20030;-70
2023/10/20 12:36:13;;;;;;;0.65;0.47;;;5.80;99.90;;;;;;5007072;28;20045;-70
2023/10/20 12:38:45;;;;;;;0.80;0.60;;;5.80;99.90;;;;;;5013679;28;20117;-69
2023/10/20 12:41:14;;;;;;;0.63;0.60;;;5.80;99.90;;;;;;5010550;28;20029;-72
2023/10/20 12:43:41;;;;;;;2.38;0.90;;;5.80;99.90;;;;;;5004757;28;20487;-69
2023/10/20 12:46:07;;;;;;;0.30;0.30;;;5.80;99.90;;;;;;5010695;28;20037;-69
2023/10/20 12:48:33;;;;;;;0.40;0.40;;;5.70;99.90;;;;;;5010017;28;20040;-68
2023/10/20 12:51:08;;;;;;;0.93;0.65;;;5.80;99.90;;;;;;5003568;28;20042;-69
2023/10/20 12:53:33;;;;;;;0.47;0.47;;;5.80;99.90;;;;;;5007214;28;20153;-68
2023/10/20 12:55:59;;;;;;;1.50;0.60;;;5.70;99.90;;;;;;5002028;28;20137;-69
2023/10/20 12:58:25;;;;;;;0.20;0.20;;;5.80;99.90;;;;;;5004803;28;20544;-69
2023/10/20 13:00:50;;;;;;;0.60;0.40;;;5.80;99.90;;;;;;5002217;28;20063;-69
2023/10/20 13:03:16;;;;;;;0.77;0.60;;;5.80;99.90;;;;;;5012728;28;20042;-68
2023/10/20 13:05:41;;;;;;;0.95;0.70;;;5.80;99.90;;;;;;5008625;28;20026;-68
2023/10/20 13:08:08;;;;;;;0.57;0.50;;;5.80;99.90;;;;;;5012646;28;20044;-68
2023/10/20 13:10:33;;;;;;;0.57;0.57;;;5.90;99.90;;;;;;5008453;28;20473;-69
2023/10/20 13:13:00;;;;;;;0.90;0.50;;;5.90;99.90;;;;;;5003468;28;20022;-70
2023/10/20 13:15:26;;;;;;;0.52;0.45;;;5.90;99.90;;;;;;5010185;28;20049;-69
2023/10/20 13:17:51;;;;;;;1.42;0.60;;;5.80;99.90;;;;;;5013327;28;20062;-68
2023/10/20 13:20:17;;;;;;;0.60;0.60;;;5.80;99.90;;;;;;5008086;28;20436;-68
2023/10/20 13:22:42;;;;;;;0.57;0.47;;;5.80;99.90;;;;;;5008556;28;20037;-69
2023/10/20 13:25:09;;;;;;;0.82;0.52;;;5.90;99.90;;;;;;5005393;28;20057;-69